• Join FlightAware (Why Join?)
  • Login
  • US Flag 
10:30AM EDT


 

Airport Tracker/Info


-or-


 

Live Flight TrackerFlight Track Log ✈ UAL4380 ✈ 20-04-2013 ✈ KCLT - KEWR

Flight Track Log - Related Links

Times and Time Zones

All times are in EDT time to prevent confusion due to time zone crossing. See the UAL4380 flight status page for this flight to view local times or setup timezone preferences in your user account.

Time Position Orientation Groundspeed Altitude Reporting Facility
EDT Latitude Longitude Course Direction KTS MPH feet Rate Location/Type
05:53AM 35.2303 -80.9242 72° East 158 182 1,500  Level Atlanta Center
05:55AM 35.2983 -80.8172 52° Northeast 223 257 5,300 1,740 Climbing Atlanta Center
05:56AM 35.2939 -80.7231 93° East 237 273 7,000 1,800 Climbing Atlanta Center
05:57AM 35.2362 -80.5409 30° Northeast  Level FlightAware Approximate
05:57AM 35.3014 -80.6186 85° East 285 328 9,000  Level Atlanta Center
05:58AM 35.3280 -80.4667 North  Level FlightAware Approximate
05:58AM 35.3253 -80.5081 75° East 320 368 10,400  Level Atlanta Center
05:59AM 35.3681 -80.3352 72° East  Level FlightAware Approximate
05:59AM 35.3614 -80.3869 70° East 362 417 11,100  Level Atlanta Center
06:00AM 35.4011 -80.2500 70° East 404 465 12,200 1,140 Climbing Atlanta Center
06:02AM 35.4647 -80.0242 71° East 416 479 14,100 1,080 Climbing Washington Center
06:03AM 35.5033 -79.8811 72° East 428 493 15,100 900 Climbing Washington Center
06:04AM 35.5375 -79.7372 74° East 438 504 16,000 780 Climbing Washington Center
06:05AM 35.5714 -79.6036 73° East 438 504 16,700 720 Climbing Washington Center
06:06AM 35.6164 -79.4372 72° East 454 522 17,500 600 Climbing Washington Center
06:07AM 35.6600 -79.3167 66° East 462 532 18,000 600 Climbing Washington Center
06:08AM 35.7436 -79.1747 54° Northeast 467 537 18,700 660 Climbing Washington Center
06:09AM 35.8608 -79.0931 29° Northeast 460 529 19,400 660 Climbing Washington Center
06:10AM 35.9800 -79.0058 31° Northeast 477 549 20,100 660 Climbing Washington Center
06:11AM 36.0972 -78.9183 31° Northeast 483 556 20,800 720 Climbing Washington Center
06:12AM 36.2189 -78.8283 31° Northeast 494 568 21,600 720 Climbing Washington Center
06:13AM 36.3422 -78.7353 31° Northeast 505 581 22,300 660 Climbing Washington Center
06:14AM 36.4656 -78.6447 31° Northeast 505 581 23,000 660 Climbing Washington Center
06:15AM 36.5889 -78.5486 32° Northeast 511 588 23,700 660 Climbing Washington Center
06:16AM 36.7272 -78.4478 30° Northeast 511 588 24,400 660 Climbing Washington Center
06:17AM 36.8397 -78.3583 32° Northeast 529 609 25,100 660 Climbing Washington Center
06:18AM 36.9692 -78.2617 31° Northeast 529 609 25,800 660 Climbing Washington Center
06:19AM 37.0964 -78.1644 31° Northeast 529 609 26,500 840 Climbing Washington Center
06:20AM 37.2217 -78.0697 31° Northeast 529 609 27,500 960 Climbing Washington Center
06:21AM 37.3467 -77.9692 33° Northeast 529 609 28,500 960 Climbing Washington Center
06:22AM 37.4694 -77.8736 32° Northeast 529 609 29,500 960 Climbing Washington Center
06:23AM 37.5925 -77.7725 33° Northeast 529 609 30,500 720 Climbing Washington Center
06:24AM 37.7092 -77.6628 37° Northeast 524 603 31,000 240 Climbing Washington Center
06:25AM 37.8339 -77.5506 35° Northeast 530 610 31,000  Level Washington Center
06:26AM 37.9608 -77.4353 36° Northeast 540 621 31,000  Level Washington Center
06:27AM 38.0983 -77.3122 35° Northeast 545 627 31,000  Level Washington Center
06:28AM 38.2231 -77.1961 36° Northeast 550 633 31,000  Level Washington Center
06:29AM 38.3497 -77.0797 36° Northeast 562 647 31,000  Level Washington Center
06:30AM 38.4739 -76.9628 36° Northeast 556 640 31,000  Level Washington Center
06:31AM 38.6025 -76.8456 35° Northeast 556 640 31,000  Level Washington Center
06:32AM 38.7267 -76.7225 38° Northeast 556 640 31,000  Level Washington Center
06:33AM 38.8403 -76.5911 42° Northeast 551 634 31,000  Level Washington Center
06:34AM 38.9539 -76.4564 43° Northeast 551 634 31,000  Level Washington Center
06:35AM 39.0611 -76.3319 42° Northeast 561 646 31,000 -1,140 Level Washington Center
06:36AM 39.1767 -76.1967 42° Northeast 561 646 28,800 -2,040 Descending Washington Center
06:37AM 39.2958 -76.0636 41° Northeast 566 651 27,000 -900 Descending Washington Center
06:38AM 39.4131 -75.9272 42° Northeast 566 651 27,000 -180 Level Washington Center
06:39AM 39.5281 -75.7906 42° Northeast 561 646 26,700 -1,680 Descending Washington Center
06:40AM 39.6469 -75.6508 42° Northeast 566 651 23,700 -3,000 Descending Washington Center
06:41AM 39.7594 -75.5106 44° Northeast 572 658 20,800 -3,000 Descending Washington Center
06:42AM 39.8633 -75.3886 42° Northeast 538 619 17,800 -2,880 Descending Washington Center
06:43AM 39.9631 -75.2694 42° Northeast 500 575 15,100 -2,640 Descending Washington Center
06:44AM 40.0689 -75.1386 43° Northeast 479 551 12,600 -2,220 Descending Washington Center
06:45AM 40.1500 -75.0333 45° Northeast 432 497 10,900 -1,620 Descending New York TRACON
06:46AM 40.2167 -74.9500 44° Northeast 358 412 9,600 -1,380 Descending New York TRACON
06:47AM 40.3000 -74.8500 42° Northeast 331 381 8,100 -1,020 Descending New York TRACON
06:48AM 40.3500 -74.7667 52° Northeast 330 380 7,500 -840 Descending New York TRACON
06:49AM 40.4167 -74.6833 44° Northeast 314 361 6,400 -720 Descending New York TRACON
06:50AM 40.5000 -74.6500 17° North 280 322 6,100 -240 Descending New York TRACON
06:51AM 40.5667 -74.6333 11° North 276 318 6,000 -60 Descending New York TRACON
06:52AM 40.6333 -74.6167 11° North 278 320 6,000  Level New York TRACON
06:53AM 40.7167 -74.5833 17° North 267 307 6,000 -240 Level New York TRACON
06:54AM 40.7667 -74.5333 37° Northeast 281 323 5,600 -480 Descending New York TRACON
06:55AM 40.8333 -74.4833 30° Northeast 256 295 5,100 -240 Descending New York TRACON
06:56AM 40.9000 -74.4167 37° Northeast 258 297 5,100  Level New York TRACON
06:57AM 40.9500 -74.3500 45° Northeast 279 321 5,100 -300 Level New York TRACON
06:58AM 40.9500 -74.2500 90° East 288 331 4,600 -600 Descending New York TRACON
06:59AM 40.9333 -74.1667 105° East 260 299 4,000 -420 Descending New York TRACON
07:00AM 40.9000 -74.1000 123° Southeast 235 270 3,900 -420 Descending New York TRACON
07:01AM 40.8500 -74.0667 153° Southeast 211 243 3,300 -600 Descending New York TRACON